Time,TemperatureF,DewpointF,PressureIn,WindDirection,WindDirectionDegrees,WindSpeedMPH,WindSpeedGustMPH,Humidity,HourlyPrecipIn,Conditions,Clouds,dailyrainin,SoftwareType,DateUTC
2013-08-23 00:24:00,66.0,58.0,30.05,NNE,23,0.0,0.0,75,0.00,,,0.28,,2013-08-23 04:24:00,
2013-08-23 00:54:00,64.0,57.0,30.06,NNE,23,0.0,0.0,77,0.00,,,0.28,,2013-08-23 04:54:00,
2013-08-23 01:22:00,63.0,56.0,30.06,NNE,23,0.0,0.0,79,0.00,,,0.28,,2013-08-23 05:22:00,
2013-08-23 01:53:00,62.0,56.0,30.07,NNE,23,0.0,0.0,81,0.00,,,0.28,,2013-08-23 05:53:00,
2013-08-23 02:22:00,61.0,55.0,30.07,NNE,23,0.0,0.0,82,0.00,,,0.02,,2013-08-23 06:22:00,
2013-08-23 02:42:00,61.0,56.0,30.07,NNE,23,0.0,0.0,83,0.00,,,0.02,,2013-08-23 06:42:00,
2013-08-23 02:52:00,61.0,56.0,30.07,North,0,0.0,0.0,83,0.00,,,0.02,,2013-08-23 06:52:00,
2013-08-23 03:22:00,61.0,55.0,30.07,North,0,0.0,0.0,82,0.00,,,0.02,,2013-08-23 07:22:00,
2013-08-23 03:53:00,60.0,54.0,30.07,North,0,0.0,0.0,81,0.00,,,0.02,,2013-08-23 07:53:00,
2013-08-23 04:22:00,58.0,52.0,30.07,North,0,0.0,0.0,81,0.00,,,0.00,,2013-08-23 08:22:00,
2013-08-23 04:52:00,57.0,52.0,30.07,North,0,0.0,0.0,82,0.00,,,0.00,,2013-08-23 08:52:00,
2013-08-23 05:21:00,56.0,51.0,30.07,North,0,0.0,0.0,82,0.00,,,0.00,,2013-08-23 09:21:00,
2013-08-23 05:53:00,56.0,51.0,30.08,North,0,0.0,0.0,82,0.00,,,0.00,,2013-08-23 09:53:00,
2013-08-23 06:23:00,55.0,50.0,30.09,North,0,0.0,0.0,82,0.00,,,0.00,,2013-08-23 10:23:00,
2013-08-23 06:53:00,54.0,49.0,30.10,North,0,0.0,0.0,82,0.00,,,0.00,,2013-08-23 10:53:00,
2013-08-23 07:22:00,54.0,49.0,30.11,NNW,338,0.0,0.0,83,0.00,,,0.00,,2013-08-23 11:22:00,
2013-08-23 07:53:00,54.0,49.0,30.12,NNW,338,0.0,0.0,83,0.00,,,0.00,,2013-08-23 11:53:00,
2013-08-23 08:22:00,56.0,51.0,30.12,NNW,338,0.0,0.0,83,0.00,,,0.00,,2013-08-23 12:22:00,
2013-08-23 08:52:00,59.0,53.0,30.13,North,0,0.0,0.0,81,0.00,,,0.00,,2013-08-23 12:52:00,
2013-08-23 09:22:00,63.0,56.0,30.14,NW,315,0.0,0.0,77,0.00,,,0.00,,2013-08-23 13:22:00,
2013-08-23 09:53:00,66.0,58.0,30.14,NNW,338,0.0,0.0,75,0.00,,,0.00,,2013-08-23 13:53:00,
2013-08-23 10:22:00,67.0,59.0,30.14,NNW,338,0.0,2.0,75,0.00,,,0.00,,2013-08-23 14:22:00,
2013-08-23 10:52:00,67.0,60.0,30.14,North,0,0.0,0.0,77,0.00,,,0.00,,2013-08-23 14:52:00,
2013-08-23 11:22:00,70.0,62.0,30.14,ENE,68,0.0,0.0,77,0.00,,,0.00,,2013-08-23 15:22:00,
2013-08-23 11:54:00,73.0,63.0,30.15,ESE,113,0.0,0.0,72,0.00,,,0.00,,2013-08-23 15:54:00,
2013-08-23 12:24:00,77.0,66.0,30.15,North,0,0.0,0.0,68,0.00,,,0.00,,2013-08-23 16:24:00,
2013-08-23 12:53:00,77.0,63.0,30.15,North,0,2.0,8.0,63,0.00,,,0.00,,2013-08-23 16:53:00,
2013-08-23 13:24:00,76.0,62.0,30.14,NE,45,1.0,2.0,63,0.00,,,0.00,,2013-08-23 17:24:00,
2013-08-23 13:54:00,78.0,64.0,30.14,NNW,338,0.0,1.0,62,0.00,,,0.00,,2013-08-23 17:54:00,
2013-08-23 14:22:00,80.0,64.0,30.14,NNE,23,0.0,0.0,58,0.00,,,0.00,,2013-08-23 18:22:00,
2013-08-23 14:52:00,81.0,63.0,30.14,NE,45,0.0,0.0,54,0.00,,,0.00,,2013-08-23 18:52:00,
2013-08-23 15:22:00,81.0,62.0,30.13,NNE,23,0.0,0.0,52,0.00,,,0.00,,2013-08-23 19:22:00,
2013-08-23 15:52:00,82.0,61.0,30.13,NE,45,0.0,0.0,50,0.00,,,0.00,,2013-08-23 19:52:00,
2013-08-23 16:22:00,82.0,61.0,30.12,NNE,23,0.0,0.0,50,0.00,,,0.00,,2013-08-23 20:22:00,
2013-08-23 16:52:00,81.0,61.0,30.12,ESE,113,1.0,0.0,50,0.00,,,0.00,,2013-08-23 20:52:00,
2013-08-23 17:22:00,81.0,60.0,30.12,ENE,68,0.0,0.0,49,0.00,,,0.00,,2013-08-23 21:22:00,
2013-08-23 17:54:00,79.0,59.0,30.12,ESE,113,0.0,0.0,50,0.00,,,0.00,,2013-08-23 21:54:00,
2013-08-23 18:24:00,79.0,59.0,30.12,NE,45,0.0,0.0,51,0.00,,,0.00,,2013-08-23 22:24:00,
2013-08-23 18:53:00,77.0,57.0,30.13,NNE,23,1.0,7.0,51,0.00,,,0.00,,2013-08-23 22:53:00,
2013-08-23 19:22:00,75.0,58.0,30.12,ENE,68,0.0,0.0,55,0.00,,,0.00,,2013-08-23 23:22:00,
2013-08-23 19:54:00,74.0,59.0,30.12,North,0,0.0,0.0,59,0.00,,,0.00,,2013-08-23 23:54:00,
2013-08-23 20:22:00,72.0,57.0,30.13,NE,45,0.0,0.0,60,0.00,,,0.00,,2013-08-24 00:22:00,
2013-08-23 20:53:00,71.0,57.0,30.13,ENE,68,0.0,0.0,61,0.00,,,0.00,,2013-08-24 00:53:00,
2013-08-23 21:22:00,69.0,56.0,30.14,ENE,68,0.0,0.0,64,0.00,,,0.00,,2013-08-24 01:22:00,
2013-08-23 21:53:00,67.0,55.0,30.15,East,90,0.0,0.0,65,0.00,,,0.00,,2013-08-24 01:53:00,
2013-08-23 22:22:00,66.0,55.0,30.16,East,90,0.0,0.0,67,0.00,,,0.00,,2013-08-24 02:22:00,
2013-08-23 22:52:00,65.0,55.0,30.17,East,90,0.0,0.0,69,0.00,,,0.00,,2013-08-24 02:52:00,
2013-08-23 23:22:00,63.0,53.0,30.17,East,90,0.0,0.0,71,0.00,,,0.00,,2013-08-24 03:22:00,
2013-08-23 23:55:00,62.0,53.0,30.18,East,90,0.0,0.0,73,0.00,,,0.00,,2013-08-24 03:55:00,